Time;durP1;ratioP1;P1;durP2;ratioP2;P2;SDS_P1;SDS_P2;PMS_P1;PMS_P2;Temp;Humidity;BMP_temperature;BMP_pressure;BME280_temperature;BME280_humidity;BME280_pressure;Samples;Min_cycle;Max_cycle;Signal;HPM_P1;HPM_P2
2022/05/06 04:00:48;;;;;;;14.83;12.40;;;13.40;99.90;;;-143.14;100.00;56521.75;5815790;23;20880;-78
2022/05/06 04:03:15;;;;;;;14.70;12.23;;;13.40;99.90;;;-143.14;100.00;56521.75;4949884;29;20464;-78
2022/05/06 04:05:42;;;;;;;14.47;11.70;;;13.50;99.90;;;-143.14;100.00;56521.75;4949401;29;20560;-78
2022/05/06 04:08:09;;;;;;;17.30;13.40;;;13.50;99.90;;;-143.14;100.00;56521.75;4949745;28;20457;-79
2022/05/06 04:10:37;;;;;;;19.20;13.17;;;13.50;99.90;;;-143.14;100.00;56521.75;4949417;28;20925;-78
2022/05/06 04:13:04;;;;;;;20.27;14.27;;;13.50;99.90;;;-143.14;100.00;56521.75;4948726;29;21012;-78
2022/05/06 04:15:32;;;;;;;21.23;13.97;;;13.50;99.90;;;-143.14;100.00;56521.75;4949599;28;20457;-78
2022/05/06 04:18:01;;;;;;;18.10;14.23;;;13.50;99.90;;;-143.14;100.00;56521.75;4949341;29;20468;-78
2022/05/06 04:23:31;;;;;;;21.30;13.30;;;13.50;99.90;;;-143.14;100.00;56521.75;4949311;29;20520;-78
2022/05/06 04:26:01;;;;;;;15.70;13.30;;;13.50;99.90;;;-143.14;100.00;56521.75;4950021;28;20441;-79
2022/05/06 04:28:29;;;;;;;19.37;15.13;;;13.50;99.90;;;-143.14;100.00;56521.75;4949988;28;20461;-78
2022/05/06 04:30:56;;;;;;;15.70;13.73;;;13.50;99.90;;;-143.14;100.00;56521.75;4949502;28;21193;-79
2022/05/06 04:33:26;;;;;;;16.20;14.30;;;13.50;99.90;;;-143.14;100.00;56521.75;4949387;29;20507;-79
2022/05/06 04:35:54;;;;;;;18.90;14.37;;;13.50;99.90;;;-143.14;100.00;56521.75;4950542;29;20461;-66
2022/05/06 04:38:23;;;;;;;17.63;14.40;;;13.50;99.90;;;-143.14;100.00;56521.75;4950979;28;20458;-66
2022/05/06 04:40:51;;;;;;;14.90;13.13;;;13.50;99.90;;;-143.14;100.00;56521.75;4951104;28;20504;-66
2022/05/06 04:43:20;;;;;;;18.07;14.10;;;13.50;99.90;;;-143.14;100.00;56521.75;4950284;29;20461;-66
2022/05/06 04:45:49;;;;;;;21.00;14.27;;;13.60;99.90;;;-143.14;100.00;56521.75;4950886;28;20472;-65
2022/05/06 04:48:16;;;;;;;15.03;13.40;;;13.60;99.90;;;-143.14;100.00;56521.75;4950905;29;20462;-65
2022/05/06 04:50:46;;;;;;;15.37;13.77;;;13.60;99.90;;;-143.14;100.00;56521.75;4950645;28;20477;-66
2022/05/06 04:53:14;;;;;;;22.70;16.00;;;13.60;99.90;;;-143.14;100.00;56521.75;4950702;29;20493;-66
2022/05/06 04:55:43;;;;;;;17.60;15.27;;;13.60;99.90;;;-143.14;100.00;56521.75;4950545;28;20453;-66
2022/05/06 04:58:11;;;;;;;18.20;14.77;;;13.50;99.90;;;-143.14;100.00;56521.75;4951139;29;20487;-66
2022/05/06 05:00:38;;;;;;;17.53;15.57;;;13.50;99.90;;;-143.14;100.00;56521.75;4951035;28;20512;-66
2022/05/06 05:03:05;;;;;;;18.63;14.33;;;13.50;99.90;;;-143.14;100.00;56521.75;4951470;29;20448;-66
2022/05/06 05:05:33;;;;;;;22.93;14.30;;;13.50;99.90;;;-143.14;100.00;56521.75;4950431;29;20552;-75
2022/05/06 05:08:01;;;;;;;16.10;13.30;;;13.40;99.90;;;-143.14;100.00;56521.75;4948948;29;20461;-76
2022/05/06 05:10:28;;;;;;;18.90;15.10;;;13.40;99.90;;;-143.14;100.00;56521.75;4948792;28;20465;-75
2022/05/06 05:12:55;;;;;;;16.37;14.53;;;13.50;99.90;;;-143.14;100.00;56521.75;4948294;29;20500;-75
2022/05/06 05:15:23;;;;;;;16.57;14.33;;;13.50;99.90;;;-143.14;100.00;56521.75;4948621;29;20946;-76
2022/05/06 05:17:50;;;;;;;17.17;14.60;;;13.50;99.90;;;-143.14;100.00;56521.75;4948881;29;20457;-75
2022/05/06 05:20:17;;;;;;;18.07;15.13;;;13.50;99.90;;;-143.14;100.00;56521.75;4948615;28;20953;-76
2022/05/06 05:22:44;;;;;;;18.00;15.47;;;13.40;99.90;;;-143.14;100.00;56521.75;4948048;29;20548;-76
2022/05/06 05:25:13;;;;;;;17.67;14.93;;;13.50;99.90;;;-143.14;100.00;56521.75;4948613;29;21145;-75
2022/05/06 05:27:41;;;;;;;23.40;15.50;;;13.40;99.90;;;-143.14;100.00;56521.75;4948516;28;20553;-75
2022/05/06 05:30:12;;;;;;;21.37;14.77;;;13.40;99.90;;;-143.14;100.00;56521.75;4948329;28;20838;-75
2022/05/06 05:32:39;;;;;;;17.03;14.73;;;13.50;99.90;;;-143.14;100.00;56521.75;4948149;28;21185;-75
2022/05/06 05:35:08;;;;;;;16.50;14.30;;;13.50;99.90;;;-143.14;100.00;56521.75;4948930;29;20968;-75
2022/05/06 05:37:36;;;;;;;17.40;14.03;;;13.50;99.90;;;-143.14;100.00;56521.75;4948610;28;20456;-76
2022/05/06 05:40:03;;;;;;;18.10;15.70;;;13.50;99.90;;;-143.14;100.00;56521.75;4948466;29;20465;-75
2022/05/06 05:42:32;;;;;;;17.30;14.87;;;13.50;99.90;;;-143.14;100.00;56521.75;4947505;28;20482;-76
2022/05/06 05:50:29;;;;;;;16.20;13.43;;;13.40;99.90;;;-143.14;100.00;56521.75;4948519;28;20437;-77
2022/05/06 05:52:58;;;;;;;17.60;13.90;;;13.50;99.90;;;-143.14;100.00;56521.75;4947400;29;20497;-76
2022/05/06 05:55:25;;;;;;;16.37;13.90;;;13.50;99.90;;;-143.14;100.00;56521.75;4947444;29;20453;-69
2022/05/06 05:57:53;;;;;;;16.90;13.80;;;13.40;99.90;;;-143.14;100.00;56521.75;4947764;29;20548;-69
2022/05/06 06:00:21;;;;;;;17.83;15.53;;;13.40;99.90;;;-143.14;100.00;56521.75;4947748;28;21258;-68
2022/05/06 06:02:48;;;;;;;17.90;14.40;;;13.40;99.90;;;-143.14;100.00;56521.75;4947340;29;20536;-69
2022/05/06 06:05:15;;;;;;;15.97;14.03;;;13.40;99.90;;;-143.14;100.00;56521.75;4948039;28;20572;-69
2022/05/06 06:07:42;;;;;;;16.70;14.03;;;13.30;99.90;;;-143.14;100.00;56521.75;4947644;28;20466;-76
2022/05/06 06:10:10;;;;;;;17.27;14.83;;;13.30;99.90;;;-143.14;100.00;56521.75;4948547;29;20568;-76
2022/05/06 06:12:38;;;;;;;17.70;13.23;;;13.30;99.90;;;-143.14;100.00;56521.75;4947648;29;20580;-76
2022/05/06 06:15:09;;;;;;;16.70;14.00;;;13.30;99.90;;;-143.14;100.00;56521.75;4948329;29;20499;-76
2022/05/06 06:17:36;;;;;;;17.23;13.47;;;13.40;99.90;;;-143.14;100.00;56521.75;4947785;29;20466;-76
2022/05/06 06:20:05;;;;;;;15.37;13.70;;;13.40;99.90;;;-143.14;100.00;56521.75;4948326;29;20458;-76
2022/05/06 06:22:34;;;;;;;17.03;12.57;;;13.40;99.90;;;-143.14;100.00;56521.75;4947528;28;20650;-76
2022/05/06 06:25:02;;;;;;;16.50;12.23;;;13.50;99.90;;;-143.14;100.00;56521.75;4948353;29;20478;-76
2022/05/06 06:27:29;;;;;;;15.00;12.30;;;13.50;99.90;;;-143.14;100.00;56521.75;4948422;29;21036;-77
2022/05/06 06:29:56;;;;;;;14.00;12.10;;;13.50;99.90;;;-143.14;100.00;56521.75;4946792;29;20976;-76
2022/05/06 06:32:24;;;;;;;14.90;11.70;;;13.50;99.90;;;-143.14;100.00;56521.75;4947228;28;20501;-77
2022/05/06 06:34:52;;;;;;;14.43;11.90;;;13.50;99.90;;;-143.14;100.00;56521.75;4947530;28;20467;-77
2022/05/06 06:37:20;;;;;;;18.87;12.63;;;13.50;99.90;;;-143.14;100.00;56521.75;4947668;29;20489;-77
2022/05/06 06:39:47;;;;;;;15.17;11.97;;;13.50;99.90;;;-143.14;100.00;56521.75;4947275;29;20469;-77
2022/05/06 06:42:14;;;;;;;14.43;12.37;;;13.50;99.90;;;-143.14;100.00;56521.75;4947284;28;20481;-77
2022/05/06 06:44:41;;;;;;;17.70;12.50;;;13.40;99.90;;;-143.14;100.00;56521.75;4947754;29;20945;-76
2022/05/06 06:47:14;;;;;;;18.77;12.20;;;13.50;99.90;;;-143.14;100.00;56521.75;4947636;29;20975;-77
2022/05/06 06:49:42;;;;;;;16.70;11.50;;;13.40;99.90;;;-143.14;100.00;56521.75;4947851;29;20480;-77
2022/05/06 06:52:09;;;;;;;14.43;11.53;;;13.40;99.90;;;-143.14;100.00;56521.75;4946874;28;20547;-77
2022/05/06 06:54:36;;;;;;;15.60;12.00;;;13.40;99.90;;;-143.14;100.00;56521.75;4947659;29;21052;-76
2022/05/06 06:57:03;;;;;;;13.00;10.40;;;13.30;99.90;;;-143.14;100.00;56521.75;4947973;29;20732;-76
2022/05/06 06:59:30;;;;;;;18.40;12.03;;;13.30;99.90;;;-143.14;100.00;56521.75;4947493;28;20508;-76
2022/05/06 07:01:57;;;;;;;14.43;10.83;;;13.30;99.90;;;-143.14;100.00;56521.75;4946861;28;20493;-77
2022/05/06 07:04:24;;;;;;;13.43;11.20;;;13.30;99.90;;;-143.14;100.00;56521.75;4947267;29;20460;-77
2022/05/06 07:12:22;;;;;;;17.00;10.90;;;13.30;99.90;;;-143.14;100.00;56521.75;4947418;28;20484;-78
2022/05/06 07:14:49;;;;;;;17.33;10.93;;;13.30;99.90;;;-143.14;100.00;56521.75;4948448;29;20464;-76
2022/05/06 07:17:16;;;;;;;15.00;10.97;;;13.30;99.90;;;-143.14;100.00;56521.75;4947991;29;20573;-76
2022/05/06 07:19:43;;;;;;;14.60;10.60;;;13.30;99.90;;;-143.14;100.00;56521.75;4949288;28;20967;-76
2022/05/06 07:22:11;;;;;;;11.00;8.90;;;13.30;99.90;;;-143.14;100.00;56521.75;4951374;28;20576;-76
2022/05/06 07:24:39;;;;;;;11.40;8.90;;;13.30;99.90;;;-143.14;100.00;56521.75;4950879;29;20520;-77
2022/05/06 07:27:07;;;;;;;15.40;10.10;;;13.30;99.90;;;-143.14;100.00;56521.75;4951096;29;20939;-77
2022/05/06 07:29:35;;;;;;;11.20;9.80;;;13.30;99.90;;;-143.14;100.00;56521.75;4951313;28;20458;-77
2022/05/06 07:32:02;;;;;;;13.17;9.70;;;13.40;99.90;;;-143.14;100.00;56521.75;4950950;28;20473;-77
2022/05/06 07:34:29;;;;;;;14.33;9.00;;;13.40;99.90;;;-143.14;100.00;56521.75;4951414;28;20587;-77
2022/05/06 07:36:57;;;;;;;11.77;8.60;;;13.40;99.90;;;-143.14;100.00;56521.75;4951051;29;20442;-76
2022/05/06 07:39:25;;;;;;;15.60;9.90;;;13.50;99.90;;;-143.14;100.00;56521.75;4951033;29;20898;-77
2022/05/06 07:41:52;;;;;;;8.90;7.80;;;13.50;99.90;;;-143.14;100.00;56521.75;4950682;28;20469;-77
2022/05/06 07:44:19;;;;;;;9.10;7.90;;;13.50;99.90;;;-143.14;100.00;56521.75;4951169;29;20555;-77
2022/05/06 07:46:47;;;;;;;10.30;8.43;;;13.50;99.90;;;-143.14;100.00;56521.75;4951569;29;20517;-77
2022/05/06 07:49:14;;;;;;;9.77;7.73;;;13.50;99.90;;;-143.14;100.00;56521.75;4951314;29;21125;-77
2022/05/06 07:51:43;;;;;;;9.97;7.40;;;13.50;99.90;;;-143.14;100.00;56521.75;4950958;28;20483;-77
2022/05/06 07:54:10;;;;;;;10.47;8.17;;;13.50;99.90;;;-143.14;100.00;56521.75;4950661;28;20600;-77
2022/05/06 07:56:38;;;;;;;12.90;8.40;;;13.60;99.90;;;-143.14;100.00;56521.75;4950714;29;20549;-77
2022/05/06 07:59:05;;;;;;;11.40;7.83;;;13.60;99.90;;;-143.14;100.00;56521.75;4950578;28;20953;-77
2022/05/06 08:04:36;;;;;;;9.53;7.30;;;13.70;99.90;;;-143.14;100.00;56521.75;4950363;29;20429;-77
2022/05/06 08:07:06;;;;;;;11.97;7.80;;;13.70;99.90;;;-143.14;100.00;56521.75;4951271;28;20461;-77
2022/05/06 08:09:34;;;;;;;7.90;7.07;;;13.70;99.90;;;-143.14;100.00;56521.75;4950929;29;20937;-77
2022/05/06 08:12:03;;;;;;;10.90;7.30;;;13.80;99.90;;;-143.14;100.00;56521.75;4949680;28;20473;-77
2022/05/06 08:14:30;;;;;;;9.83;6.70;;;13.70;99.90;;;-143.14;100.00;56521.75;4950188;29;21005;-77
2022/05/06 08:16:58;;;;;;;7.53;6.70;;;13.80;99.90;;;-143.14;100.00;56521.75;4948786;29;20468;-77
2022/05/06 08:19:25;;;;;;;7.63;6.93;;;13.80;99.90;;;-143.14;100.00;56521.75;4950240;28;20471;-77
2022/05/06 08:21:53;;;;;;;12.50;6.77;;;13.80;99.90;;;-143.14;100.00;56521.75;4950141;28;20568;-77
2022/05/06 08:24:21;;;;;;;9.00;6.50;;;13.90;99.90;;;-143.14;100.00;56521.75;4950243;29;20552;-77
2022/05/06 08:26:49;;;;;;;12.53;7.00;;;13.90;99.90;;;-143.14;100.00;56521.75;4950232;29;20457;-77
2022/05/06 08:29:17;;;;;;;7.77;6.37;;;14.00;99.90;;;-143.14;100.00;56521.75;4948811;28;20461;-77
2022/05/06 08:31:44;;;;;;;8.83;6.80;;;14.00;99.90;;;-143.14;100.00;56521.75;4949564;28;20485;-77
2022/05/06 08:34:13;;;;;;;10.60;6.67;;;14.10;99.90;;;-143.14;100.00;56521.75;4949691;28;20865;-77
2022/05/06 08:36:43;;;;;;;7.60;6.20;;;14.20;99.90;;;-143.14;100.00;56521.75;4949327;29;20498;-77
2022/05/06 08:39:11;;;;;;;6.60;5.73;;;14.10;99.90;;;-143.14;100.00;56521.75;4949629;29;20462;-76
2022/05/06 08:41:39;;;;;;;10.00;5.83;;;14.10;99.90;;;-143.14;100.00;56521.75;4948484;28;20481;-77
2022/05/06 08:52:33;;;;;;;9.23;6.00;;;14.20;99.90;;;-143.14;100.00;56521.75;4948540;28;20457;-77
2022/05/06 08:55:02;;;;;;;10.33;5.27;;;14.20;99.90;;;-143.14;100.00;56521.75;4948713;29;20500;-77
2022/05/06 08:57:30;;;;;;;8.30;6.20;;;14.20;99.90;;;-143.14;100.00;56521.75;4948994;29;20461;-77
2022/05/06 08:59:57;;;;;;;6.47;5.77;;;14.20;99.90;;;-143.14;100.00;56521.75;4949154;29;20968;-76
2022/05/06 09:02:26;;;;;;;10.03;5.10;;;14.30;99.90;;;-143.14;100.00;56521.75;4948587;28;20496;-76
2022/05/06 09:04:53;;;;;;;7.40;5.80;;;14.40;99.90;;;-143.14;100.00;56521.75;4949451;29;20508;-76
2022/05/06 09:07:25;;;;;;;6.73;5.60;;;14.40;99.90;;;-143.14;100.00;56521.75;4948910;29;20457;-76
2022/05/06 09:10:14;;;;;;;6.13;5.50;;;14.40;99.90;;;-143.14;100.00;56521.75;4949610;29;20473;-76
2022/05/06 09:12:44;;;;;;;7.17;5.40;;;14.50;99.90;;;-143.14;100.00;56521.75;4948213;29;20525;-76
2022/05/06 09:18:00;;;;;;;8.63;5.07;;;14.60;99.90;;;-143.14;100.00;56521.75;4948375;29;20433;-76
2022/05/06 09:20:29;;;;;;;5.90;4.70;;;14.70;99.90;;;-143.14;100.00;56521.75;4948240;28;20468;-77
2022/05/06 09:22:57;;;;;;;7.43;5.17;;;14.80;99.90;;;-143.14;100.00;56521.75;4947541;29;20457;-74
2022/05/06 09:25:42;;;;;;;6.37;4.30;;;14.90;99.90;;;-143.14;100.00;56521.75;4946728;29;20548;-68
2022/05/06 09:28:24;;;;;;;10.77;4.90;;;14.90;99.90;;;-143.14;100.00;56521.75;4947827;29;20457;-67
2022/05/06 09:31:04;;;;;;;6.80;4.57;;;15.00;99.90;;;-143.14;100.00;56521.75;4948098;28;20472;-68
2022/05/06 09:33:36;;;;;;;7.70;4.63;;;15.00;99.90;;;-143.14;100.00;56521.75;4946992;29;20549;-68
2022/05/06 09:36:25;;;;;;;6.87;5.13;;;15.10;99.90;;;-143.14;100.00;56521.75;4948348;28;20449;-68
2022/05/06 09:39:03;;;;;;;7.87;4.80;;;15.20;99.90;;;-143.14;100.00;56521.75;4947839;28;20453;-77
2022/05/06 09:41:31;;;;;;;8.73;4.80;;;15.30;99.90;;;-143.14;100.00;56521.75;4948080;28;20481;-77
2022/05/06 09:44:02;;;;;;;8.43;5.10;;;15.40;99.90;;;-143.14;100.00;56521.75;4947252;29;20801;-77
2022/05/06 09:46:29;;;;;;;6.67;4.70;;;15.50;99.90;;;-143.14;100.00;56521.75;4948780;29;20453;-77
2022/05/06 09:49:00;;;;;;;6.57;5.07;;;15.60;99.90;;;-143.14;100.00;56521.75;4949209;29;20446;-77
2022/05/06 09:51:28;;;;;;;7.50;4.73;;;15.80;99.90;;;-143.14;100.00;56521.75;4948468;28;20489;-77
2022/05/06 09:53:57;;;;;;;7.97;4.80;;;16.00;99.90;;;-143.14;100.00;56521.75;4947305;29;20490;-77
2022/05/06 09:56:25;;;;;;;8.00;4.97;;;16.20;99.90;;;-143.14;100.00;56521.75;4948070;29;20472;-77
2022/05/06 09:58:53;;;;;;;10.77;4.23;;;16.30;99.90;;;-143.14;100.00;56521.75;4948025;29;20988;-77
2022/05/06 10:01:21;;;;;;;7.80;4.50;;;16.50;99.90;;;-143.14;100.00;56521.75;4948428;28;20489;-77
2022/05/06 10:03:50;;;;;;;7.13;4.17;;;16.50;99.90;;;-143.14;100.00;56521.75;4947743;29;20450;-77
2022/05/06 10:06:20;;;;;;;15.40;4.63;;;16.70;99.90;;;-143.14;100.00;56521.75;4948206;28;20450;-77
2022/05/06 10:08:51;;;;;;;6.10;4.67;;;16.90;99.90;;;-143.14;100.00;56521.75;4948442;29;20541;-77
2022/05/06 10:11:24;;;;;;;5.90;4.97;;;17.00;99.90;;;-143.14;100.00;56521.75;4947400;28;20478;-77
2022/05/06 10:13:57;;;;;;;8.37;4.53;;;17.10;99.90;;;-143.14;100.00;56521.75;4947325;29;20592;-77
2022/05/06 10:16:35;;;;;;;7.70;4.33;;;17.20;99.90;;;-143.14;100.00;56521.75;4948272;29;20504;-77
2022/05/06 10:19:03;;;;;;;6.70;4.57;;;17.30;99.90;;;-143.14;100.00;56521.75;4948977;28;20460;-76
2022/05/06 10:21:49;;;;;;;6.60;4.30;;;17.40;99.90;;;-143.14;100.00;56521.75;4948212;28;20528;-78
2022/05/06 10:24:18;;;;;;;5.53;4.07;;;17.50;99.90;;;-143.14;100.00;56521.75;4948423;28;20516;-76
2022/05/06 10:26:47;;;;;;;6.80;4.50;;;17.60;99.90;;;-143.14;100.00;56521.75;4949354;29;20465;-77
2022/05/06 10:32:54;;;;;;;7.03;4.40;;;17.70;99.90;;;-143.14;100.00;56521.75;4942537;28;20485;-77
2022/05/06 10:35:38;;;;;;;9.27;4.60;;;17.80;99.90;;;-143.14;100.00;56521.75;4944403;28;20577;-76
2022/05/06 10:38:24;;;;;;;4.70;4.00;;;17.90;99.90;;;-143.14;100.00;56521.75;4949386;28;20461;-79
2022/05/06 10:40:57;;;;;;;5.40;3.90;;;18.00;99.90;;;-143.14;100.00;56521.75;4949074;29;20513;-78
2022/05/06 10:44:00;;;;;;;5.10;3.97;;;18.10;99.90;;;-143.14;100.00;56521.75;4948518;29;20481;-79
2022/05/06 10:46:41;;;;;;;7.67;4.00;;;18.20;99.90;;;-143.14;100.00;56521.75;4948223;29;20446;-78
2022/05/06 10:49:48;;;;;;;7.47;5.33;;;18.30;99.90;;;-143.14;100.00;56521.75;4948557;29;20475;-77
2022/05/06 10:52:51;;;;;;;9.83;4.53;;;18.40;99.90;;;-143.14;100.00;56521.75;4948121;29;20477;-78
2022/05/06 10:55:23;;;;;;;6.03;4.50;;;18.60;99.90;;;-143.14;100.00;56521.75;4908844;29;20483;-78
2022/05/06 10:58:03;;;;;;;6.37;4.07;;;18.70;99.90;;;-143.14;100.00;56521.75;4911581;29;20467;-78
2022/05/06 11:00:34;;;;;;;6.80;3.57;;;18.90;99.90;;;-143.14;100.00;56521.75;4935269;28;20472;-78
2022/05/06 11:03:01;;;;;;;7.23;4.90;;;19.00;99.90;;;-143.14;100.00;56521.75;4951728;29;20441;-78
2022/05/06 11:05:31;;;;;;;5.90;4.40;;;19.20;99.90;;;-143.14;100.00;56521.75;4951937;29;20465;-77
2022/05/06 11:08:05;;;;;;;5.80;4.80;;;19.30;99.90;;;-143.14;100.00;56521.75;4951743;29;20461;-76
2022/05/06 11:10:35;;;;;;;9.00;5.23;;;19.40;99.90;;;-143.14;100.00;56521.75;4952454;28;20520;-75
2022/05/06 11:13:08;;;;;;;9.07;4.90;;;19.50;99.90;;;-143.14;100.00;56521.75;4950810;28;20835;-76
2022/05/06 11:15:37;;;;;;;8.87;5.60;;;19.70;99.90;;;-143.14;100.00;56521.75;4950079;29;20485;-76
2022/05/06 11:18:06;;;;;;;6.43;5.27;;;19.80;99.90;;;-143.14;100.00;56521.75;4951229;28;20488;-76
2022/05/06 11:20:36;;;;;;;8.67;4.60;;;19.80;99.90;;;-143.14;100.00;56521.75;4950658;29;20901;-77
2022/05/06 11:23:05;;;;;;;9.63;4.67;;;19.90;99.90;;;-143.14;100.00;56521.75;4950970;28;21048;-76
2022/05/06 11:25:35;;;;;;;6.43;4.50;;;20.00;99.90;;;-143.14;100.00;56521.75;4950641;29;20457;-77
2022/05/06 11:28:09;;;;;;;5.03;4.13;;;20.10;99.90;;;-143.14;100.00;56521.75;4951327;29;20448;-77
2022/05/06 11:30:37;;;;;;;7.90;4.20;;;20.20;99.90;;;-143.14;100.00;56521.75;4950731;29;20851;-77
2022/05/06 11:33:06;;;;;;;7.00;4.63;;;20.30;99.90;;;-143.14;100.00;56521.75;4950568;29;20548;-77
2022/05/06 11:35:44;;;;;;;6.30;4.60;;;20.40;99.90;;;-143.14;100.00;56521.75;4950617;29;20591;-77
2022/05/06 11:38:11;;;;;;;10.53;4.93;;;20.50;99.90;;;-143.14;100.00;56521.75;4950542;29;20971;-77
2022/05/06 11:40:40;;;;;;;8.63;4.37;;;20.70;99.90;;;-143.14;100.00;56521.75;4950013;29;20496;-77
2022/05/06 11:43:22;;;;;;;7.60;4.60;;;20.70;99.90;;;-143.14;100.00;56521.75;4949303;29;20921;-77
2022/05/06 11:48:44;;;;;;;10.33;4.70;;;20.90;99.90;;;-143.14;100.00;56521.75;4950328;29;20436;-77
2022/05/06 11:51:15;;;;;;;5.23;4.20;;;21.00;99.90;;;-143.14;100.00;56521.75;4949879;29;20830;-77
2022/05/06 11:53:44;;;;;;;6.90;4.70;;;21.00;99.90;;;-143.14;100.00;56521.75;4949211;29;20484;-77
2022/05/06 11:56:13;;;;;;;7.50;4.33;;;21.00;99.90;;;-143.14;100.00;56521.75;4950042;29;20453;-77
2022/05/06 11:58:45;;;;;;;6.40;4.40;;;21.30;99.90;;;-143.14;100.00;56521.75;4950194;29;20934;-77
2022/05/06 12:01:12;;;;;;;8.40;5.10;;;21.30;99.90;;;-143.14;100.00;56521.75;4949668;29;20481;-77
2022/05/06 12:03:39;;;;;;;7.13;4.80;;;21.20;99.90;;;-143.14;100.00;56521.75;4948939;29;20505;-77
2022/05/06 12:06:09;;;;;;;7.83;5.00;;;21.10;99.90;;;-143.14;100.00;56521.75;4948756;28;20465;-76
2022/05/06 12:08:38;;;;;;;5.40;4.50;;;21.10;99.90;;;-143.14;100.00;56521.75;4949021;29;20917;-76
2022/05/06 12:11:07;;;;;;;8.23;5.37;;;21.10;99.90;;;-143.14;100.00;56521.75;4950077;28;20556;-76
2022/05/06 12:13:41;;;;;;;6.60;4.60;;;21.00;99.90;;;-143.14;100.00;56521.75;4949661;29;20476;-76
2022/05/06 12:16:12;;;;;;;7.50;4.50;;;21.00;99.90;;;-143.14;100.00;56521.75;4949962;29;20448;-76
2022/05/06 12:18:53;;;;;;;7.80;4.13;;;21.00;99.90;;;-143.14;100.00;56521.75;4950604;29;20576;-76
2022/05/06 12:21:25;;;;;;;6.13;4.30;;;21.10;99.90;;;-143.14;100.00;56521.75;4950369;29;20520;-77
2022/05/06 12:23:56;;;;;;;8.47;5.17;;;21.10;99.90;;;-143.14;100.00;56521.75;4950381;29;20438;-78
2022/05/06 12:26:38;;;;;;;4.93;4.43;;;21.10;99.90;;;-143.14;100.00;56521.75;4951129;29;20442;-77
2022/05/06 12:29:20;;;;;;;7.40;4.57;;;21.10;99.90;;;-143.14;100.00;56521.75;4950403;28;20455;-77
2022/05/06 12:31:48;;;;;;;8.00;4.57;;;21.20;99.90;;;-143.14;100.00;56521.75;4950310;28;20568;-77
2022/05/06 12:34:15;;;;;;;6.10;4.43;;;21.10;99.90;;;-143.14;100.00;56521.75;4949837;29;20504;-76
2022/05/06 12:36:43;;;;;;;7.90;5.27;;;21.10;99.90;;;-143.14;100.00;56521.75;4949913;29;20485;-77
2022/05/06 12:39:21;;;;;;;9.70;4.90;;;21.20;99.90;;;-143.14;100.00;56521.75;4949724;29;20457;-76
2022/05/06 12:41:50;;;;;;;8.60;5.50;;;21.10;99.90;;;-143.14;100.00;56521.75;4949072;29;20564;-77
2022/05/06 12:44:21;;;;;;;6.40;4.70;;;21.10;99.90;;;-143.14;100.00;56521.75;4948266;29;20460;-77
2022/05/06 12:46:50;;;;;;;8.43;4.70;;;21.00;99.90;;;-143.14;100.00;56521.75;4949739;29;20442;-78
2022/05/06 12:52:06;;;;;;;5.07;4.20;;;20.90;99.90;;;-143.14;100.00;56521.75;4948578;29;20464;-77
2022/05/06 12:54:33;;;;;;;6.70;4.63;;;20.90;99.90;;;-143.14;100.00;56521.75;4949325;29;20588;-76
2022/05/06 12:57:01;;;;;;;9.83;5.60;;;20.90;99.90;;;-143.14;100.00;56521.75;4949023;29;20864;-76
2022/05/06 12:59:30;;;;;;;6.23;4.20;;;20.80;99.90;;;-143.14;100.00;56521.75;4949308;28;20467;-66
2022/05/06 13:01:57;;;;;;;8.50;4.23;;;20.70;99.90;;;-143.14;100.00;56521.75;4948846;29;20837;-66
2022/05/06 13:04:24;;;;;;;6.50;4.93;;;20.60;99.90;;;-143.14;100.00;56521.75;4949300;29;20453;-66
2022/05/06 13:06:52;;;;;;;9.43;4.63;;;20.70;99.90;;;-143.14;100.00;56521.75;4949392;29;20453;-66
2022/05/06 13:09:19;;;;;;;8.07;5.30;;;20.70;99.90;;;-143.14;100.00;56521.75;4949422;29;20465;-66
2022/05/06 13:11:46;;;;;;;6.03;4.63;;;20.70;99.90;;;-143.14;100.00;56521.75;4949661;29;20485;-66
2022/05/06 13:14:13;;;;;;;9.60;5.20;;;20.80;99.90;;;-143.14;100.00;56521.75;4948449;29;20936;-66
2022/05/06 13:16:41;;;;;;;6.23;4.37;;;20.80;99.90;;;-143.14;100.00;56521.75;4948865;28;20908;-65
2022/05/06 13:19:11;;;;;;;5.20;4.13;;;20.90;99.90;;;-143.14;100.00;56521.75;4949622;29;20467;-66
2022/05/06 13:21:39;;;;;;;4.50;4.03;;;20.90;99.90;;;-143.14;100.00;56521.75;4949346;29;20524;-65
2022/05/06 13:24:07;;;;;;;8.10;4.30;;;20.90;99.90;;;-143.14;100.00;56521.75;4949119;29;20489;-65
2022/05/06 13:26:35;;;;;;;5.00;4.43;;;20.90;99.90;;;-143.14;100.00;56521.75;4949284;28;20468;-65
2022/05/06 13:29:03;;;;;;;6.50;4.47;;;20.70;99.90;;;-143.14;100.00;56521.75;4949203;29;20947;-65
2022/05/06 13:31:30;;;;;;;8.30;4.67;;;20.60;99.90;;;-143.14;100.00;56521.75;4950278;28;20497;-65
2022/05/06 13:33:59;;;;;;;8.00;4.63;;;20.60;99.90;;;-143.14;100.00;56521.75;4954420;28;20450;-65
2022/05/06 13:36:26;;;;;;;6.60;4.53;;;20.70;99.90;;;-143.14;100.00;56521.75;4961713;28;20505;-66
2022/05/06 13:38:53;;;;;;;6.90;4.27;;;20.70;99.90;;;-143.14;100.00;56521.75;4958523;28;20482;-66
2022/05/06 13:41:21;;;;;;;11.70;5.07;;;20.70;99.90;;;-143.14;100.00;56521.75;4951461;28;20473;-66
2022/05/06 13:43:48;;;;;;;11.17;5.03;;;20.70;99.90;;;-143.14;100.00;56521.75;4954837;28;20548;-66
2022/05/06 13:46:15;;;;;;;9.33;4.73;;;20.60;99.90;;;-143.14;100.00;56521.75;4960897;28;20542;-65
2022/05/06 13:48:42;;;;;;;4.83;4.43;;;20.60;99.90;;;-143.14;100.00;56521.75;4968405;28;20968;-66
2022/05/06 13:51:10;;;;;;;7.23;4.27;;;20.50;99.90;;;-143.14;100.00;56521.75;4954180;28;20512;-63
2022/05/06 13:53:37;;;;;;;6.60;4.50;;;20.50;99.90;;;-143.14;100.00;56521.75;4960199;28;20452;-63
2022/05/06 13:59:05;;;;;;;6.33;4.43;;;20.40;99.90;;;-143.14;100.00;56521.75;4951601;28;20435;-63
2022/05/06 14:01:34;;;;;;;9.50;5.37;;;20.40;99.90;;;-143.14;100.00;56521.75;4968927;28;21004;-63
2022/05/06 14:04:02;;;;;;;6.70;4.80;;;20.40;99.90;;;-143.14;100.00;56521.75;4959279;28;20958;-64
2022/05/06 14:06:31;;;;;;;7.17;5.07;;;20.40;99.90;;;-143.14;100.00;56521.75;4947905;28;20976;-63
2022/05/06 14:08:58;;;;;;;12.27;4.60;;;20.40;99.90;;;-143.14;100.00;56521.75;4953651;28;20450;-67
2022/05/06 14:11:26;;;;;;;8.00;5.00;;;20.40;99.90;;;-143.14;100.00;56521.75;4949033;28;20585;-66
2022/05/06 14:13:54;;;;;;;5.30;3.93;;;20.40;99.90;;;-143.14;100.00;56521.75;4954316;28;20560;-66
2022/05/06 14:16:25;;;;;;;6.90;4.70;;;20.40;99.90;;;-143.14;100.00;56521.75;4945193;29;20900;-66
2022/05/06 14:18:53;;;;;;;6.07;5.00;;;20.30;99.90;;;-143.14;100.00;56521.75;4956718;28;20925;-67
2022/05/06 14:21:20;;;;;;;8.90;5.00;;;20.30;99.90;;;-143.14;100.00;56521.75;4954875;28;20482;-67
2022/05/06 14:23:48;;;;;;;10.03;4.87;;;20.40;99.90;;;-143.14;100.00;56521.75;4959754;28;20546;-66
2022/05/06 14:26:15;;;;;;;9.30;5.40;;;20.40;99.90;;;-143.14;100.00;56521.75;4956716;28;20449;-67
2022/05/06 14:28:42;;;;;;;7.27;4.17;;;20.40;99.90;;;-143.14;100.00;56521.75;4955806;28;20942;-67
2022/05/06 14:31:10;;;;;;;8.40;5.10;;;20.40;99.90;;;-143.14;100.00;56521.75;4957018;28;20476;-68
2022/05/06 14:33:37;;;;;;;9.50;5.03;;;20.40;99.90;;;-143.14;100.00;56521.75;4946977;29;20536;-68
2022/05/06 14:36:04;;;;;;;5.93;4.37;;;20.40;99.90;;;-143.14;100.00;56521.75;4950595;28;20893;-68
2022/05/06 14:38:31;;;;;;;5.43;4.00;;;20.40;99.90;;;-143.14;100.00;56521.75;4957803;28;20464;-67
2022/05/06 14:41:00;;;;;;;12.97;4.00;;;20.40;99.90;;;-143.14;100.00;56521.75;4957980;28;20904;-71
2022/05/06 14:43:27;;;;;;;6.33;4.23;;;20.40;99.90;;;-143.14;100.00;56521.75;4958537;28;20448;-66
2022/05/06 14:45:54;;;;;;;6.00;3.93;;;20.30;99.90;;;-143.14;100.00;56521.75;4957732;28;20452;-67